Flight Track Log - Related Links

Times and Time Zones

All times are in EDT time to prevent confusion due to time zone crossing. See the N62JM flight status page for this flight to view local times or setup timezone preferences in your user account.

Time Position Orientation Groundspeed Altitude Reporting Facility
EDT Latitude Longitude Course Direction KTS MPH feet Rate Location/Type
Tue 03:46:36 PM 39.2333 -77.4833 288° West 139 160 2,600  Level Potomac TRACON
Tue 03:47:37 PM 39.2500 -77.5500 288° West 145 167 2,500 -99 Descending Potomac TRACON
Tue 03:48:37 PM 39.2500 -77.6000 270° West 156 180 2,400 150 Descending Potomac TRACON
Tue 03:49:37 PM 39.2667 -77.6500 293° West 133 153 2,800 500 Climbing Potomac TRACON
Tue 03:50:37 PM 39.2833 -77.6833 303° West 131 151 3,400 645 Climbing Potomac TRACON
Tue 03:51:38 PM 39.2833 -77.7333 270° West 121 139 4,100 545 Climbing Potomac TRACON
Tue 03:52:38 PM 39.3000 -77.7833 293° West 134 154 4,500 263 Climbing Potomac TRACON
Tue 03:53:32 PM 39.3167 -77.8167 303° West 142 163 4,600 158 Climbing Potomac TRACON
Tue 03:54:32 PM 39.3333 -77.8667 293° West 144 166 4,800 347 Climbing Potomac TRACON
Tue 03:55:33 PM 39.3333 -77.9167 270° West 130 150 5,300 496 Climbing Potomac TRACON
Tue 03:56:33 PM 39.3333 -77.9667 270° West 130 150 5,800 474 Climbing Potomac TRACON
Tue 03:57:27 PM 39.3500 -78.0000 303° West 127 146 6,200 364 Climbing Potomac TRACON
Tue 03:58:12 PM 39.3514 -78.0367 273° West 129 148 6,400 113 Climbing Washington Center
Tue 03:59:13 PM 39.3650 -78.0800 292° West 143 165 6,400  Level Washington Center
Tue 04:00:13 PM 39.3786 -78.1342 288° West 148 170 6,400  Level Washington Center
Tue 04:01:14 PM 39.3858 -78.1828 281° West 148 170 6,400  Level Washington Center
Tue 04:02:14 PM 39.3931 -78.2286 282° West 148 170 6,400  Level Washington Center
Tue 04:03:12 PM 39.4044 -78.2803 286° West 148 170 6,400  Level Washington Center
Tue 04:04:13 PM 39.4117 -78.3314 280° West 148 170 6,400  Level Washington Center
Tue 04:05:14 PM 39.4231 -78.3831 286° West 148 170 6,400  Level Washington Center
Tue 04:06:14 PM 39.4342 -78.4372 285° West 148 170 6,400  Level Washington Center
Tue 04:07:14 PM 39.4433 -78.4886 283° West 148 170 6,400  Level Washington Center
Tue 04:08:12 PM 39.4525 -78.5428 282° West 148 170 6,400  Level Washington Center
Tue 04:09:13 PM 39.4617 -78.5942 283° West 148 170 6,400  Level Washington Center
Tue 04:10:14 PM 39.4686 -78.6483 279° West 148 170 6,400  Level Washington Center
Tue 04:11:12 PM 39.4778 -78.6997 283° West 143 165 6,400  Level Washington Center
Tue 04:12:14 PM 39.4847 -78.7536 279° West 143 165 6,400  Level Washington Center
Tue 04:13:12 PM 39.4917 -78.8025 280° West 143 165 6,400  Level Washington Center
Tue 04:14:13 PM 39.4986 -78.8567 279° West 143 165 6,400  Level Washington Center
Tue 04:15:13 PM 39.5097 -78.9081 286° West 143 165 6,400 -50 Level Washington Center
Tue 04:16:14 PM 39.5144 -78.9622 276° West 143 165 6,300 -101 Descending Washington Center
Tue 04:17:12 PM 39.5236 -79.0111 284° West 143 165 6,200 -101 Descending Washington Center
Tue 04:18:13 PM 39.5367 -79.0656 287° West 143 165 6,100 -98 Descending Washington Center
Tue 04:19:14 PM 39.5475 -79.1144 286° West 148 170 6,000 -220 Descending Washington Center
Tue 04:21:24 PM 39.6014 -79.2258 302° West 155 178 5,400 -277 Descending Cleveland Center
Tue 04:23:00 PM 39.5667 -79.3333 279° West  Level FlightAware Approximate
Tue 04:30:00 PM 39.5808 -79.3359 279° West  Level Estimated
Tue 04:31:00 PM 39.5808 -79.3359 279° West  Level Estimated
Tue 04:32:00 PM 39.5808 -79.3359 279° West  Level Estimated
Tue 04:33:00 PM 39.5808 -79.3359 279° West  Level Estimated
Tue 04:34:00 PM 39.5808 -79.3359 279° West  Level Estimated

Login

Don't have an account? Register now (free) for customized features, flight alerts, and more!